Halle Kroellwitz, Germany

12:24 PM CEST on September 23, 2014 (GMT +0200)
ISACHSEN100 | Change Station
CLOSE
Current Station
Personal Weather Station
Location: Halle, SACHSEN-ANHALT
Elevation: 305 ft
Nearby Weather Stations

Elev 305 ft 51.51 °N, 11.89 °E | Updated 3 minutes ago

Mostly Cloudy
Mostly Cloudy
57.8 °F
Feels Like 57.8 °F
N
0.0
Wind Variable Wind from NW

Today
High -- | Low -- °F
--% Chance of Precip.
Yesterday
High -- | Low -- °F
Precip. -- in
6:59 AM 7:08 PM
Waning Crescent, 1% visible
Pressure 30.12 in
Visibility 6.2 miles
Clouds Scattered Clouds 2600 ft
Mostly Cloudy 4400 ft
Dew Point 47 °F
Humidity 67%
Rainfall 0.00 in
Snow Depth Not available.
UV 2 out of 12
Pollen Not available.
Air Quality Not available.
Flu Activity Not available.
METAR EDDP 231020Z 30011KT 9999 SCT026 BKN044 13/07 Q1020 NOSIG

More Conditions Fewer Conditions

Pressure 30.12 in
Visibility 6.2 miles
Clouds Scattered Clouds 2600 ft
Mostly Cloudy 4400 ft
Dew Point 47 °F
Humidity 67%
Rainfall 0.00 in
Snow Depth Not available.
UV 2 out of 12
Pollen Not available.
Air Quality Not available.
Flu Activity Not available.
METAR EDDP 231020Z 30011KT 9999 SCT026 BKN044 13/07 Q1020 NOSIG

More Conditions Fewer Conditions

10-Day Weather Forecast

Almanac

Astronomy

Sep. 23, 2014 Rise Set
Actual Time 6:59 AM CEST 7:08 PM CEST
Civil Twilight 6:26 AM CEST 7:41 PM CEST
Nautical Twilight 5:46 AM CEST 8:21 PM CEST
Astronomical Twilight 5:05 AM CEST 9:02 PM CEST
Moon 6:05 AM CEST 6:38 PM CEST
Length of Visible Light 13h 15m
Length of Day
12h 09m
Tomorrow will be 3m 55s shorter.
Waning Crescent, 1% of the Moon is Illuminated
Today
Waning Crescent
Sep 24
New
Oct 1
First Quarter
Oct 8
Full
Oct 15
Last Quarter

Yesterday's Extremes

Country Highs Country Lows

Community

WunderPhotos

Upload Photos

1,755,645 photos uploaded!

Nearby

Snow Depth

Not available.

Earthquake Activity

City Distance Mag. Time & Date
No recent earthquake activity has been reported nearby.
Minimum magnitude displayed is 2.5.

Coastal Water Temperatures

Place Temperature
No Stations Reporting

Nearby Weather Stations